Time;durP1;ratioP1;P1;durP2;ratioP2;P2;SDS_P1;SDS_P2;PMS_P1;PMS_P2;Temp;Humidity;BMP_temperature;BMP_pressure;BME280_temperature;BME280_humidity;BME280_pressure;Samples;Min_cycle;Max_cycle;Signal;HPM_P1;HPM_P2
2021/12/29 00:01:32;;;;;;;3.45;1.98;;;18.30;99.90;;;;;;4196021;28;20977;-79
2021/12/29 00:03:34;;;;;;;2.63;1.42;;;18.30;99.90;;;;;;4180489;28;20265;-79
2021/12/29 00:05:37;;;;;;;4.82;1.80;;;18.30;99.90;;;;;;4180446;28;20265;-79
2021/12/29 00:07:39;;;;;;;3.55;1.60;;;18.20;99.90;;;;;;4180322;28;20266;-79
2021/12/29 00:09:41;;;;;;;4.28;1.65;;;18.20;99.90;;;;;;4180189;28;20219;-80
2021/12/29 00:11:45;;;;;;;3.65;1.65;;;18.20;99.90;;;;;;4183711;28;20238;-79
2021/12/29 00:13:47;;;;;;;3.65;1.73;;;18.20;99.90;;;;;;4183918;28;20901;-79
2021/12/29 00:15:57;;;;;;;3.33;1.70;;;18.20;99.90;;;;;;4183601;28;20269;-80
2021/12/29 00:18:00;;;;;;;2.42;1.38;;;18.20;99.90;;;;;;4184067;28;20241;-79
2021/12/29 00:20:02;;;;;;;3.08;1.50;;;18.20;99.90;;;;;;4184062;28;20293;-79
2021/12/29 00:22:04;;;;;;;2.50;1.40;;;18.10;99.90;;;;;;4183451;28;20216;-80
2021/12/29 00:24:07;;;;;;;4.70;1.90;;;18.20;99.90;;;;;;4183549;28;20617;-80
2021/12/29 00:26:11;;;;;;;3.08;1.75;;;18.20;99.90;;;;;;4183425;28;20215;-80
2021/12/29 00:28:15;;;;;;;2.58;1.35;;;18.20;99.90;;;;;;4183554;28;20637;-80
2021/12/29 00:30:17;;;;;;;2.97;1.35;;;18.20;99.90;;;;;;4183665;28;20599;-80
2021/12/29 00:32:19;;;;;;;3.88;1.60;;;18.20;99.90;;;;;;4183579;28;21062;-79
2021/12/29 00:34:22;;;;;;;3.08;1.58;;;18.20;99.90;;;;;;4183338;28;20269;-79
2021/12/29 00:36:24;;;;;;;2.85;1.40;;;18.20;99.90;;;;;;4183295;28;20266;-79
2021/12/29 00:38:27;;;;;;;3.38;1.50;;;18.20;99.90;;;;;;4183155;28;20257;-79
2021/12/29 00:40:29;;;;;;;2.85;1.63;;;18.20;99.90;;;;;;4183405;28;20223;-79
2021/12/29 00:42:32;;;;;;;4.05;1.40;;;18.20;99.90;;;;;;4182892;28;20215;-79
2021/12/29 00:44:35;;;;;;;3.92;1.80;;;18.20;99.90;;;;;;4183274;28;20211;-80
2021/12/29 00:46:38;;;;;;;3.67;1.50;;;18.20;99.90;;;;;;4183036;28;20274;-79
2021/12/29 00:48:43;;;;;;;3.05;1.60;;;18.10;99.90;;;;;;4183420;28;20620;-79
2021/12/29 00:50:46;;;;;;;3.13;1.70;;;18.20;99.90;;;;;;4183244;28;20255;-80
2021/12/29 00:52:48;;;;;;;2.47;1.50;;;18.10;99.90;;;;;;4182940;28;20219;-79
2021/12/29 00:54:51;;;;;;;3.00;1.30;;;18.10;99.90;;;;;;4183226;28;20561;-79
2021/12/29 00:56:53;;;;;;;3.45;1.60;;;18.10;99.90;;;;;;4183137;28;20216;-80
2021/12/29 00:58:55;;;;;;;3.05;1.55;;;18.10;99.90;;;;;;4183342;28;20262;-80
2021/12/29 01:01:00;;;;;;;3.03;1.30;;;18.10;99.90;;;;;;4182661;28;20281;-79
2021/12/29 01:03:02;;;;;;;3.90;1.63;;;18.10;99.90;;;;;;4182672;28;20246;-79
2021/12/29 01:05:05;;;;;;;2.67;1.48;;;18.10;99.90;;;;;;4182992;28;20683;-79
2021/12/29 01:07:08;;;;;;;2.85;1.40;;;18.10;99.90;;;;;;4182760;28;20269;-80
2021/12/29 01:09:10;;;;;;;2.80;1.55;;;18.10;99.90;;;;;;4183146;28;20223;-80
2021/12/29 01:11:14;;;;;;;3.00;1.60;;;18.10;99.90;;;;;;4182493;28;20224;-80
2021/12/29 01:13:19;;;;;;;2.20;1.50;;;18.10;99.90;;;;;;4183497;28;20536;-79
2021/12/29 01:15:27;;;;;;;3.92;1.60;;;18.10;99.90;;;;;;4182925;28;20273;-80
2021/12/29 01:17:31;;;;;;;3.58;1.80;;;18.10;99.90;;;;;;4182637;28;20224;-79
2021/12/29 01:19:33;;;;;;;3.08;1.35;;;18.10;99.90;;;;;;4182732;28;20236;-79
2021/12/29 01:21:37;;;;;;;2.95;1.50;;;18.10;99.90;;;;;;4181306;28;20261;-79
2021/12/29 01:23:39;;;;;;;4.65;1.88;;;18.10;99.90;;;;;;4182449;28;20629;-80
2021/12/29 01:25:42;;;;;;;2.63;1.30;;;18.00;99.90;;;;;;4182644;28;20608;-79
2021/12/29 01:27:44;;;;;;;2.95;1.42;;;18.10;99.90;;;;;;4182651;28;20668;-80
2021/12/29 01:29:47;;;;;;;3.38;1.23;;;18.10;99.90;;;;;;4176823;28;20279;-79
2021/12/29 01:31:49;;;;;;;3.50;1.48;;;18.10;99.90;;;;;;4186854;28;20207;-79
2021/12/29 01:33:53;;;;;;;2.88;1.67;;;18.10;99.90;;;;;;4182732;28;20265;-79
2021/12/29 01:35:55;;;;;;;2.55;1.25;;;18.00;99.90;;;;;;4182592;28;20216;-80
2021/12/29 01:37:58;;;;;;;2.17;1.40;;;18.00;99.90;;;;;;4183128;28;20616;-80
2021/12/29 01:40:00;;;;;;;2.78;1.63;;;18.00;99.90;;;;;;4182667;28;20285;-80
2021/12/29 01:42:03;;;;;;;1.88;1.30;;;18.10;99.90;;;;;;4182601;28;20664;-79
2021/12/29 01:44:08;;;;;;;2.03;1.23;;;18.00;99.90;;;;;;4182403;28;20223;-80
2021/12/29 01:46:11;;;;;;;2.50;1.20;;;18.00;99.90;;;;;;4182118;28;20211;-79
2021/12/29 01:48:15;;;;;;;2.20;1.20;;;18.00;99.90;;;;;;4182380;28;20219;-79
2021/12/29 01:50:19;;;;;;;3.05;1.60;;;18.00;99.90;;;;;;4182093;28;20266;-79
2021/12/29 01:52:27;;;;;;;3.45;1.23;;;18.00;99.90;;;;;;4182693;28;20269;-80
2021/12/29 01:54:34;;;;;;;1.50;1.10;;;18.00;99.90;;;;;;4182129;28;20224;-79
2021/12/29 01:56:36;;;;;;;4.15;1.50;;;18.00;99.90;;;;;;4182212;28;20216;-79
2021/12/29 01:58:40;;;;;;;3.28;1.27;;;18.00;99.90;;;;;;4182347;28;20257;-80
2021/12/29 02:00:42;;;;;;;2.72;1.35;;;18.00;99.90;;;;;;4182293;28;20286;-79
2021/12/29 02:02:44;;;;;;;3.47;1.30;;;18.00;99.90;;;;;;4170962;28;20212;-79
2021/12/29 02:04:47;;;;;;;2.92;1.48;;;18.00;99.90;;;;;;4165386;28;20624;-79
2021/12/29 02:06:51;;;;;;;3.42;1.70;;;18.00;99.90;;;;;;4165848;28;20266;-79
2021/12/29 02:08:55;;;;;;;1.60;1.45;;;18.00;99.90;;;;;;4165555;28;20275;-79
2021/12/29 02:10:59;;;;;;;2.85;1.70;;;18.00;99.90;;;;;;4165131;28;20212;-80
2021/12/29 02:13:02;;;;;;;3.53;1.33;;;18.00;99.90;;;;;;4165282;28;20627;-79
2021/12/29 02:15:05;;;;;;;2.67;1.13;;;18.00;99.90;;;;;;4165402;28;20228;-80
2021/12/29 02:17:07;;;;;;;2.35;1.10;;;18.00;99.90;;;;;;4165613;28;20282;-80
2021/12/29 02:19:11;;;;;;;3.33;1.30;;;18.00;99.90;;;;;;4165428;28;20208;-80
2021/12/29 02:21:20;;;;;;;3.17;1.33;;;18.00;99.90;;;;;;4165041;28;20245;-79
2021/12/29 02:23:30;;;;;;;3.42;1.48;;;17.90;99.90;;;;;;4165211;28;20257;-79
2021/12/29 02:25:46;;;;;;;2.08;1.10;;;18.00;99.90;;;;;;4165535;28;20723;-79
2021/12/29 02:27:51;;;;;;;3.83;1.60;;;17.90;99.90;;;;;;4165667;28;20669;-79
2021/12/29 02:29:56;;;;;;;2.65;1.27;;;18.00;99.90;;;;;;4165621;28;20213;-79
2021/12/29 02:31:58;;;;;;;3.10;1.38;;;17.90;99.90;;;;;;4166068;28;20221;-80
2021/12/29 02:34:01;;;;;;;4.28;1.40;;;17.90;99.90;;;;;;4181047;28;20672;-79
2021/12/29 02:36:05;;;;;;;2.55;1.27;;;17.90;99.90;;;;;;4181870;28;20216;-79
2021/12/29 02:38:18;;;;;;;3.65;1.60;;;17.90;99.90;;;;;;4181372;28;20220;-79
2021/12/29 02:40:20;;;;;;;2.33;1.38;;;17.90;99.90;;;;;;4181109;28;20235;-80
2021/12/29 02:42:28;;;;;;;2.00;1.20;;;17.90;99.90;;;;;;4181666;28;20274;-79
2021/12/29 02:44:38;;;;;;;2.22;1.08;;;17.90;99.90;;;;;;4181443;28;20278;-79
2021/12/29 02:46:40;;;;;;;3.67;1.67;;;17.90;99.90;;;;;;4181542;28;20274;-80
2021/12/29 02:48:51;;;;;;;2.35;1.15;;;17.90;99.90;;;;;;4181568;28;20215;-79
2021/12/29 02:50:56;;;;;;;2.72;1.27;;;17.90;99.90;;;;;;4181534;28;20269;-79
2021/12/29 02:52:58;;;;;;;2.60;1.25;;;17.90;99.90;;;;;;4181725;28;20211;-79
2021/12/29 02:55:02;;;;;;;2.90;1.60;;;17.90;99.90;;;;;;4181494;28;20282;-79
2021/12/29 02:57:04;;;;;;;2.55;1.23;;;17.90;99.90;;;;;;4181105;28;20224;-80
2021/12/29 02:59:07;;;;;;;2.38;1.35;;;17.90;99.90;;;;;;4181416;28;20266;-79
2021/12/29 03:01:13;;;;;;;2.03;1.30;;;17.90;99.90;;;;;;4181093;28;20239;-79
2021/12/29 03:03:20;;;;;;;3.38;1.23;;;17.90;99.90;;;;;;4181051;28;20559;-79
2021/12/29 03:05:26;;;;;;;2.33;1.20;;;17.90;99.90;;;;;;4180934;28;20215;-79
2021/12/29 03:07:28;;;;;;;2.20;1.15;;;17.90;99.90;;;;;;4180788;28;20262;-80
2021/12/29 03:09:31;;;;;;;2.58;1.23;;;17.90;99.90;;;;;;4180869;28;20262;-79
2021/12/29 03:11:40;;;;;;;3.22;1.30;;;17.90;99.90;;;;;;4181334;28;20212;-79
2021/12/29 03:13:43;;;;;;;2.78;1.27;;;17.90;99.90;;;;;;4181143;28;20219;-79
2021/12/29 03:15:45;;;;;;;1.63;1.08;;;17.90;99.90;;;;;;4181064;28;20223;-79
2021/12/29 03:17:47;;;;;;;2.45;1.20;;;17.80;99.90;;;;;;4177089;28;20278;-79
2021/12/29 03:19:50;;;;;;;1.55;1.00;;;17.80;99.90;;;;;;4184594;28;20257;-79
2021/12/29 03:21:52;;;;;;;2.38;1.20;;;17.80;99.90;;;;;;4196953;28;20292;-79
2021/12/29 03:23:54;;;;;;;3.10;1.55;;;17.80;99.90;;;;;;4197249;28;20215;-79
2021/12/29 03:25:57;;;;;;;1.92;1.20;;;17.80;99.90;;;;;;4197481;28;20277;-79
2021/12/29 03:28:00;;;;;;;2.22;1.38;;;17.80;99.90;;;;;;4197062;28;20222;-79
2021/12/29 03:30:04;;;;;;;2.67;1.10;;;17.80;99.90;;;;;;4197596;28;20219;-79
2021/12/29 03:32:09;;;;;;;3.22;1.25;;;17.80;99.90;;;;;;4196886;28;20219;-79
2021/12/29 03:34:12;;;;;;;2.97;1.40;;;17.80;99.90;;;;;;4196867;28;20211;-79
2021/12/29 03:36:15;;;;;;;1.83;1.02;;;17.80;99.90;;;;;;4196449;28;20269;-79
2021/12/29 03:38:21;;;;;;;2.67;1.20;;;17.80;99.90;;;;;;4197261;28;20613;-79
2021/12/29 03:40:24;;;;;;;2.65;1.10;;;17.80;99.90;;;;;;4197501;28;20214;-79
2021/12/29 03:42:27;;;;;;;2.17;1.17;;;17.80;99.90;;;;;;4197187;28;20239;-79
2021/12/29 03:44:30;;;;;;;2.58;1.05;;;17.80;99.90;;;;;;4196584;28;20211;-79
2021/12/29 03:46:33;;;;;;;2.50;1.40;;;17.80;99.90;;;;;;4196921;28;20223;-79
2021/12/29 03:48:40;;;;;;;2.08;1.20;;;17.80;99.90;;;;;;4197061;28;20273;-79
2021/12/29 03:50:42;;;;;;;2.40;1.50;;;17.80;99.90;;;;;;4197217;28;20215;-79
2021/12/29 03:52:45;;;;;;;2.08;1.17;;;17.80;99.90;;;;;;4197068;28;20215;-79
2021/12/29 03:54:47;;;;;;;2.33;1.33;;;17.80;99.90;;;;;;4196994;28;20556;-79
2021/12/29 03:56:49;;;;;;;1.80;1.17;;;17.80;99.90;;;;;;4196977;28;20220;-79
2021/12/29 03:58:52;;;;;;;1.17;1.05;;;17.80;99.90;;;;;;4196589;28;20280;-79
2021/12/29 04:00:59;;;;;;;2.58;1.40;;;17.80;99.90;;;;;;4196702;28;20265;-79
2021/12/29 04:03:03;;;;;;;3.78;1.45;;;17.80;99.90;;;;;;4183489;28;20261;-79
2021/12/29 04:05:07;;;;;;;1.63;1.20;;;17.80;99.90;;;;;;4180536;28;20265;-79
2021/12/29 04:07:10;;;;;;;4.05;1.20;;;17.70;99.90;;;;;;4180260;28;20215;-79
2021/12/29 04:09:12;;;;;;;1.88;1.10;;;17.80;99.90;;;;;;4179884;28;20220;-80
2021/12/29 04:11:15;;;;;;;1.83;1.00;;;17.80;99.90;;;;;;4179947;28;20211;-80
2021/12/29 04:13:20;;;;;;;2.75;1.20;;;17.80;99.90;;;;;;4179839;28;20261;-79
2021/12/29 04:15:24;;;;;;;2.22;1.20;;;17.70;99.90;;;;;;4179728;28;20270;-79
2021/12/29 04:17:36;;;;;;;3.00;1.20;;;17.70;99.90;;;;;;4180287;28;20220;-79
2021/12/29 04:21:59;;;;;;;1.50;1.00;;;17.70;99.90;;;;;;4179205;28;20255;-80
2021/12/29 04:24:01;;;;;;;2.10;1.00;;;17.70;99.90;;;;;;4179719;28;20264;-79
2021/12/29 04:26:08;;;;;;;2.72;1.40;;;17.70;99.90;;;;;;4180377;28;20237;-79
2021/12/29 04:28:15;;;;;;;2.28;1.13;;;17.70;99.90;;;;;;4180155;28;20653;-79
2021/12/29 04:30:17;;;;;;;2.08;1.10;;;17.70;99.90;;;;;;4179897;28;20635;-79
2021/12/29 04:32:20;;;;;;;2.55;1.25;;;17.70;99.90;;;;;;4180116;28;20228;-79
2021/12/29 04:34:23;;;;;;;2.75;1.40;;;17.70;99.90;;;;;;4180108;28;20220;-79
2021/12/29 04:36:26;;;;;;;2.15;1.20;;;17.70;99.90;;;;;;4179863;28;20223;-79
2021/12/29 04:38:28;;;;;;;1.70;1.17;;;17.70;99.90;;;;;;4180146;28;20266;-79
2021/12/29 04:40:30;;;;;;;1.92;1.00;;;17.70;99.90;;;;;;4180198;28;20223;-80
2021/12/29 04:42:34;;;;;;;2.90;1.25;;;17.70;99.90;;;;;;4180269;28;20254;-80
2021/12/29 04:44:38;;;;;;;2.22;1.00;;;17.70;99.90;;;;;;4179912;28;20244;-79
2021/12/29 04:46:45;;;;;;;2.58;1.13;;;17.70;99.90;;;;;;4179686;28;20216;-79
2021/12/29 04:48:51;;;;;;;2.85;1.17;;;17.70;99.90;;;;;;4179980;28;20219;-79
2021/12/29 04:51:04;;;;;;;2.85;1.38;;;17.70;99.90;;;;;;4179755;28;20636;-79
2021/12/29 04:53:10;;;;;;;2.72;1.10;;;17.70;99.90;;;;;;4179971;28;20211;-79
2021/12/29 04:55:12;;;;;;;2.53;1.20;;;17.70;99.90;;;;;;4180190;28;20220;-79
2021/12/29 04:57:15;;;;;;;1.65;1.08;;;17.70;99.90;;;;;;4182671;28;20227;-79
2021/12/29 04:59:17;;;;;;;1.65;1.08;;;17.70;99.90;;;;;;4182804;28;20232;-80
2021/12/29 05:01:20;;;;;;;1.35;0.85;;;17.70;99.90;;;;;;4183062;28;20270;-79
2021/12/29 05:03:23;;;;;;;2.75;1.10;;;17.70;99.90;;;;;;4182860;28;20223;-79
2021/12/29 05:05:40;;;;;;;2.50;1.10;;;17.70;99.90;;;;;;4183268;28;20262;-79
2021/12/29 05:10:04;;;;;;;3.05;1.05;;;17.60;99.90;;;;;;4199843;28;20195;-79
2021/12/29 05:12:08;;;;;;;2.08;1.25;;;17.60;99.90;;;;;;4199321;28;20211;-79
2021/12/29 05:14:10;;;;;;;2.58;1.20;;;17.60;99.90;;;;;;4199225;28;20612;-79
2021/12/29 05:16:13;;;;;;;2.22;1.10;;;17.60;99.90;;;;;;4199143;28;20265;-79
2021/12/29 05:18:15;;;;;;;1.92;0.93;;;17.60;99.90;;;;;;4199778;28;20613;-79
2021/12/29 05:20:18;;;;;;;2.33;1.35;;;17.70;99.90;;;;;;4199399;28;20733;-79
2021/12/29 05:22:20;;;;;;;2.28;0.98;;;17.60;99.90;;;;;;4199269;28;20239;-79
2021/12/29 05:24:24;;;;;;;2.70;1.25;;;17.60;99.90;;;;;;4199394;28;20606;-80
2021/12/29 05:26:26;;;;;;;3.30;1.10;;;17.60;99.90;;;;;;4199458;28;20709;-79
2021/12/29 05:28:29;;;;;;;2.15;1.00;;;17.60;99.90;;;;;;4198979;28;20219;-79
2021/12/29 05:30:31;;;;;;;2.75;1.25;;;17.60;99.90;;;;;;4199720;28;20257;-79
2021/12/29 05:32:34;;;;;;;2.10;0.85;;;17.60;99.90;;;;;;4196554;28;20773;-79
2021/12/29 05:34:36;;;;;;;2.90;1.20;;;17.60;99.90;;;;;;4199340;28;20289;-79
2021/12/29 05:36:38;;;;;;;2.53;1.08;;;17.60;99.90;;;;;;4198855;28;20668;-79
2021/12/29 05:38:41;;;;;;;2.10;1.10;;;17.60;99.90;;;;;;4198658;28;20215;-79
2021/12/29 05:40:44;;;;;;;2.28;1.15;;;17.60;99.90;;;;;;4198611;28;20260;-79
2021/12/29 05:42:47;;;;;;;1.73;1.00;;;17.60;99.90;;;;;;4199008;28;20243;-80
2021/12/29 05:44:49;;;;;;;2.80;1.33;;;17.60;99.90;;;;;;4198931;28;20265;-79
2021/12/29 05:46:51;;;;;;;1.75;1.10;;;17.60;99.90;;;;;;4198678;28;20256;-79
2021/12/29 05:48:54;;;;;;;2.15;1.20;;;17.60;99.90;;;;;;4198378;28;20219;-79
2021/12/29 05:50:56;;;;;;;1.80;1.23;;;17.60;99.90;;;;;;4199038;28;20218;-79
2021/12/29 05:53:00;;;;;;;3.00;1.25;;;17.60;99.90;;;;;;4198711;28;20215;-79
2021/12/29 05:55:02;;;;;;;2.30;1.27;;;17.60;99.90;;;;;;4198810;28;20222;-79
2021/12/29 05:57:06;;;;;;;3.60;1.20;;;17.50;99.90;;;;;;4198947;28;20218;-79
2021/12/29 05:59:09;;;;;;;2.47;1.15;;;17.50;99.90;;;;;;4198783;28;20288;-79
2021/12/29 06:01:12;;;;;;;3.53;1.20;;;17.60;99.90;;;;;;4199077;28;20215;-79
2021/12/29 06:03:14;;;;;;;3.35;1.30;;;17.60;99.90;;;;;;4183690;28;20235;-79
2021/12/29 06:05:17;;;;;;;1.92;1.08;;;17.60;99.90;;;;;;4182150;28;20212;-80
2021/12/29 06:07:20;;;;;;;2.38;1.23;;;17.50;99.90;;;;;;4181710;28;20243;-79
2021/12/29 06:09:22;;;;;;;2.63;1.00;;;17.60;99.90;;;;;;4182052;28;20270;-79
2021/12/29 06:11:24;;;;;;;2.60;1.23;;;17.60;99.90;;;;;;4182093;28;20266;-80
2021/12/29 06:13:28;;;;;;;2.53;1.10;;;17.60;99.90;;;;;;4181721;28;20208;-79
2021/12/29 06:15:30;;;;;;;1.75;0.75;;;17.70;99.90;;;;;;4181027;28;20215;-79
2021/12/29 06:17:35;;;;;;;2.53;0.95;;;17.70;99.90;;;;;;4181941;28;20216;-80
2021/12/29 06:19:37;;;;;;;3.15;1.02;;;17.70;99.90;;;;;;4181411;28;20263;-79
2021/12/29 06:21:40;;;;;;;2.13;1.17;;;17.70;99.90;;;;;;4181508;28;20266;-79
2021/12/29 06:23:42;;;;;;;2.25;1.00;;;17.70;99.90;;;;;;4181586;28;20239;-79
2021/12/29 06:25:45;;;;;;;1.33;0.95;;;17.80;99.90;;;;;;4181503;28;20618;-80
2021/12/29 06:27:47;;;;;;;2.92;1.08;;;17.80;99.90;;;;;;4181427;28;20289;-79
2021/12/29 06:29:52;;;;;;;2.08;0.98;;;17.80;99.90;;;;;;4181539;28;20215;-80
2021/12/29 06:31:54;;;;;;;2.38;1.10;;;17.80;99.90;;;;;;4181173;28;20219;-79
2021/12/29 06:34:00;;;;;;;2.00;1.13;;;17.80;99.90;;;;;;4181105;28;20706;-75
2021/12/29 06:36:02;;;;;;;2.17;0.88;;;17.80;99.90;;;;;;4180923;28;20215;-75
2021/12/29 06:38:04;;;;;;;2.05;0.80;;;17.90;99.90;;;;;;4181297;28;20592;-75
2021/12/29 06:40:09;;;;;;;1.45;0.82;;;17.90;99.90;;;;;;4181447;28;20714;-75
2021/12/29 06:42:11;;;;;;;3.15;1.40;;;17.90;99.90;;;;;;4180775;28;20266;-75
2021/12/29 06:44:14;;;;;;;2.25;1.10;;;17.90;99.90;;;;;;4181152;28;20212;-75
2021/12/29 06:46:17;;;;;;;2.38;0.93;;;17.90;99.90;;;;;;4181056;28;20219;-75
2021/12/29 06:48:20;;;;;;;3.15;1.20;;;17.90;99.90;;;;;;4181045;28;20244;-75
2021/12/29 06:50:22;;;;;;;1.58;0.98;;;17.90;99.90;;;;;;4180957;28;20220;-75
2021/12/29 06:52:24;;;;;;;1.95;1.10;;;17.90;99.90;;;;;;4181177;28;20215;-75
2021/12/29 06:54:27;;;;;;;2.33;1.00;;;17.90;99.90;;;;;;4177862;28;20640;-75
2021/12/29 06:56:29;;;;;;;1.58;0.93;;;17.90;99.90;;;;;;4185879;28;20663;-75
2021/12/29 06:58:31;;;;;;;2.25;1.20;;;17.90;99.90;;;;;;4197673;28;20667;-75
2021/12/29 07:00:34;;;;;;;1.63;1.02;;;17.90;99.90;;;;;;4197181;28;20262;-75
2021/12/29 07:02:38;;;;;;;2.38;0.90;;;18.00;99.90;;;;;;4187370;28;20223;-75
2021/12/29 07:04:40;;;;;;;1.95;0.93;;;18.00;99.90;;;;;;4181065;28;20266;-75
2021/12/29 07:06:42;;;;;;;1.50;0.90;;;18.00;99.90;;;;;;4180508;28;20215;-75
2021/12/29 07:08:45;;;;;;;1.92;1.00;;;18.00;99.90;;;;;;4180388;28;20262;-75
2021/12/29 07:10:49;;;;;;;2.50;0.98;;;18.00;99.90;;;;;;4180323;28;20216;-75
2021/12/29 07:12:51;;;;;;;2.15;1.10;;;18.00;99.90;;;;;;4180511;28;20266;-75
2021/12/29 07:14:54;;;;;;;1.38;0.82;;;18.00;99.90;;;;;;4180445;28;20264;-75
2021/12/29 07:16:59;;;;;;;3.35;1.27;;;18.00;99.90;;;;;;4180789;28;20266;-75
2021/12/29 07:19:03;;;;;;;1.92;1.13;;;18.00;99.90;;;;;;4180611;28;20212;-75
2021/12/29 07:21:05;;;;;;;2.00;1.10;;;18.00;99.90;;;;;;4180641;28;20266;-75
2021/12/29 07:23:07;;;;;;;2.53;1.00;;;18.00;99.90;;;;;;4180428;28;20278;-75
2021/12/29 07:25:10;;;;;;;2.05;1.02;;;18.10;99.90;;;;;;4179338;28;20242;-75
2021/12/29 07:27:12;;;;;;;2.78;1.17;;;18.00;99.90;;;;;;4180490;28;20223;-75
2021/12/29 07:29:15;;;;;;;2.33;1.20;;;18.00;99.90;;;;;;4179910;28;20270;-75
2021/12/29 07:31:18;;;;;;;1.85;1.10;;;18.10;99.90;;;;;;4179516;28;20716;-75
2021/12/29 07:33:20;;;;;;;3.55;1.02;;;18.10;99.90;;;;;;4179442;28;20286;-75
2021/12/29 07:35:24;;;;;;;2.25;1.02;;;18.10;99.90;;;;;;4179394;28;20211;-75
2021/12/29 07:37:26;;;;;;;1.95;0.90;;;18.10;99.90;;;;;;4179061;28;20608;-75
2021/12/29 07:39:29;;;;;;;1.77;0.95;;;18.10;99.90;;;;;;4179442;28;20212;-76
2021/12/29 07:41:31;;;;;;;2.42;0.90;;;18.20;99.90;;;;;;4179042;28;20216;-75
2021/12/29 07:43:35;;;;;;;1.88;0.80;;;18.20;99.90;;;;;;4179522;28;20717;-75
2021/12/29 07:45:41;;;;;;;1.75;1.05;;;18.20;99.90;;;;;;4180484;28;20216;-75
2021/12/29 07:47:47;;;;;;;1.60;0.95;;;18.10;99.90;;;;;;4180501;28;21101;-75
2021/12/29 07:49:49;;;;;;;1.88;1.08;;;18.20;99.90;;;;;;4180115;28;20246;-75
2021/12/29 07:51:54;;;;;;;1.90;1.10;;;18.10;99.90;;;;;;4180319;28;20668;-75
2021/12/29 07:53:58;;;;;;;2.38;1.05;;;18.20;99.90;;;;;;4179826;28;20254;-75
2021/12/29 07:56:00;;;;;;;4.00;1.10;;;18.20;99.90;;;;;;4180222;28;20668;-75
2021/12/29 07:58:02;;;;;;;1.75;0.90;;;18.20;99.90;;;;;;4179914;28;20220;-75
2021/12/29 08:00:06;;;;;;;1.75;1.17;;;18.20;99.90;;;;;;4179769;28;20237;-76
2021/12/29 08:02:15;;;;;;;2.88;1.17;;;18.20;99.90;;;;;;4180092;28;20539;-75
2021/12/29 08:04:19;;;;;;;2.97;1.20;;;18.20;99.90;;;;;;4179841;28;20285;-75
2021/12/29 08:06:24;;;;;;;2.20;0.90;;;18.20;99.90;;;;;;4179979;28;20219;-75
2021/12/29 08:08:28;;;;;;;2.85;1.23;;;18.20;99.90;;;;;;4179993;28;20243;-75
2021/12/29 08:10:31;;;;;;;2.13;1.20;;;18.20;99.90;;;;;;4180111;28;20246;-75
2021/12/29 08:12:34;;;;;;;2.53;1.10;;;18.20;99.90;;;;;;4180322;28;20220;-75
2021/12/29 08:14:36;;;;;;;2.47;1.08;;;18.30;99.90;;;;;;4179862;28;20208;-75
2021/12/29 08:16:38;;;;;;;3.38;1.30;;;18.30;99.90;;;;;;4179590;28;20220;-75
2021/12/29 08:18:43;;;;;;;2.53;1.40;;;18.30;99.90;;;;;;4180044;28;20262;-75
2021/12/29 08:20:46;;;;;;;1.80;1.20;;;18.30;99.90;;;;;;4179698;28;20211;-75
2021/12/29 08:22:52;;;;;;;2.72;1.15;;;18.30;99.90;;;;;;4180288;28;20211;-75
2021/12/29 08:24:55;;;;;;;1.90;1.02;;;18.30;99.90;;;;;;4179714;28;20232;-76
2021/12/29 08:26:58;;;;;;;2.47;1.08;;;18.30;99.90;;;;;;4180035;28;20262;-75
2021/12/29 08:29:01;;;;;;;2.70;1.20;;;18.30;99.90;;;;;;4179712;28;20215;-75
2021/12/29 08:31:04;;;;;;;2.45;1.23;;;18.30;99.90;;;;;;4180577;28;20624;-75
2021/12/29 08:33:07;;;;;;;1.17;0.95;;;18.30;99.90;;;;;;4182987;28;20293;-75
2021/12/29 08:35:10;;;;;;;3.55;1.42;;;18.30;99.90;;;;;;4182890;28;20262;-74
2021/12/29 08:37:12;;;;;;;2.42;1.10;;;18.30;99.90;;;;;;4182691;28;20282;-75
2021/12/29 08:39:14;;;;;;;2.33;1.25;;;18.30;99.90;;;;;;4183094;28;20266;-75
2021/12/29 08:41:18;;;;;;;1.77;0.98;;;18.30;99.90;;;;;;4183185;28;20958;-75
2021/12/29 08:43:21;;;;;;;2.90;1.23;;;18.40;99.90;;;;;;4176278;28;20281;-75
2021/12/29 08:45:23;;;;;;;2.38;1.17;;;18.30;99.90;;;;;;4180266;28;20269;-75
2021/12/29 08:47:26;;;;;;;3.97;1.30;;;18.40;99.90;;;;;;4182945;28;20215;-75
2021/12/29 08:49:28;;;;;;;3.17;1.20;;;18.40;99.90;;;;;;4183167;28;20661;-75
2021/12/29 08:51:30;;;;;;;2.95;1.25;;;18.40;99.90;;;;;;4182597;28;20219;-75
2021/12/29 08:53:33;;;;;;;2.15;1.30;;;18.40;99.90;;;;;;4183044;28;20250;-74
2021/12/29 08:55:37;;;;;;;3.38;1.20;;;18.40;99.90;;;;;;4182866;28;20211;-75
2021/12/29 08:57:41;;;;;;;4.38;1.17;;;18.40;99.90;;;;;;4182868;28;20262;-75
2021/12/29 08:59:43;;;;;;;2.50;1.20;;;18.40;99.90;;;;;;4182397;28;20219;-74
2021/12/29 09:01:46;;;;;;;2.10;0.98;;;18.40;99.90;;;;;;4182306;28;20227;-74
2021/12/29 09:03:48;;;;;;;2.13;1.10;;;18.40;99.90;;;;;;4182991;28;20236;-75
2021/12/29 09:05:51;;;;;;;3.63;1.35;;;18.50;99.90;;;;;;4182443;28;20676;-75
2021/12/29 09:07:53;;;;;;;2.78;1.30;;;18.50;99.90;;;;;;4183173;28;20223;-74
2021/12/29 09:09:55;;;;;;;1.80;1.10;;;18.50;99.90;;;;;;4182086;28;20257;-75
2021/12/29 09:11:59;;;;;;;2.35;1.05;;;18.50;99.90;;;;;;4182479;28;20734;-75
2021/12/29 09:14:03;;;;;;;2.75;1.02;;;18.50;99.90;;;;;;4182470;28;20734;-75
2021/12/29 09:16:06;;;;;;;2.97;1.10;;;18.50;99.90;;;;;;4182530;28;20212;-75
2021/12/29 09:18:09;;;;;;;2.42;1.20;;;18.50;99.90;;;;;;4182399;28;20220;-75
2021/12/29 09:20:16;;;;;;;2.38;1.02;;;18.50;99.90;;;;;;4182528;28;20605;-75
2021/12/29 09:22:18;;;;;;;2.88;1.08;;;18.50;99.90;;;;;;4182575;28;20734;-75
2021/12/29 09:24:21;;;;;;;3.33;1.08;;;18.60;99.90;;;;;;4182234;28;20236;-74
2021/12/29 09:26:24;;;;;;;2.25;1.10;;;18.60;99.90;;;;;;4182728;28;20224;-75
2021/12/29 09:28:26;;;;;;;2.05;1.02;;;18.60;99.90;;;;;;4182128;28;20211;-74
2021/12/29 09:30:33;;;;;;;2.58;1.17;;;18.60;99.90;;;;;;4182705;28;20204;-74
2021/12/29 09:32:35;;;;;;;4.50;1.38;;;18.60;99.90;;;;;;4181932;28;20235;-75
2021/12/29 09:34:38;;;;;;;2.55;1.27;;;18.60;99.90;;;;;;4181934;28;20258;-75
2021/12/29 09:36:40;;;;;;;3.20;1.35;;;18.60;99.90;;;;;;4182048;28;20219;-74
2021/12/29 09:38:43;;;;;;;2.75;1.25;;;18.60;99.90;;;;;;4181908;28;20219;-75
2021/12/29 09:40:46;;;;;;;2.55;1.15;;;18.60;99.90;;;;;;4182106;28;20211;-74
2021/12/29 09:42:49;;;;;;;2.00;1.00;;;18.70;99.90;;;;;;4180805;28;20224;-74
2021/12/29 09:44:52;;;;;;;3.00;1.20;;;18.70;99.90;;;;;;4181834;28;20240;-75
2021/12/29 09:46:56;;;;;;;3.85;1.30;;;18.70;99.90;;;;;;4181897;28;20216;-74
2021/12/29 09:49:01;;;;;;;3.20;1.27;;;18.60;99.90;;;;;;4181714;28;20261;-75
2021/12/29 09:51:05;;;;;;;2.13;1.23;;;18.60;99.90;;;;;;4182146;28;20282;-75
2021/12/29 09:53:08;;;;;;;3.60;1.40;;;18.70;99.90;;;;;;4181610;28;20215;-75
2021/12/29 09:55:13;;;;;;;3.00;1.13;;;18.70;99.90;;;;;;4181481;28;20261;-75
2021/12/29 09:57:15;;;;;;;5.30;1.33;;;18.70;99.90;;;;;;4181930;28;20224;-75
2021/12/29 09:59:19;;;;;;;1.98;1.13;;;18.70;99.90;;;;;;4181931;28;20657;-75
2021/12/29 10:01:21;;;;;;;2.33;1.38;;;18.70;99.90;;;;;;4181531;28;20223;-74
2021/12/29 10:03:28;;;;;;;3.63;1.60;;;18.70;99.90;;;;;;4165229;28;20220;-75
2021/12/29 10:05:32;;;;;;;2.97;1.23;;;18.70;99.90;;;;;;4165168;28;20236;-74
2021/12/29 10:07:35;;;;;;;3.50;1.63;;;18.70;99.90;;;;;;4165100;28;20216;-74
2021/12/29 10:09:37;;;;;;;2.05;1.20;;;18.70;99.90;;;;;;4165229;28;20220;-75
2021/12/29 10:11:40;;;;;;;2.35;1.25;;;18.70;99.90;;;;;;4164945;28;20213;-75
2021/12/29 10:13:45;;;;;;;2.15;1.25;;;18.80;99.90;;;;;;4165217;28;20269;-75
2021/12/29 10:15:51;;;;;;;1.95;1.17;;;18.80;99.90;;;;;;4165533;28;21099;-75
2021/12/29 10:18:01;;;;;;;2.03;1.17;;;18.80;99.90;;;;;;4165447;28;20215;-75
2021/12/29 10:20:08;;;;;;;2.75;1.20;;;18.80;99.90;;;;;;4165005;28;20211;-75
2021/12/29 10:22:21;;;;;;;3.45;1.33;;;18.80;99.90;;;;;;4164580;28;20631;-75
2021/12/29 10:24:23;;;;;;;2.03;1.00;;;18.80;99.90;;;;;;4164734;28;20282;-75
2021/12/29 10:26:27;;;;;;;3.97;1.40;;;18.80;99.90;;;;;;4165058;28;20216;-74
2021/12/29 10:28:32;;;;;;;3.65;1.15;;;18.80;99.90;;;;;;4165081;28;20576;-75
2021/12/29 10:30:34;;;;;;;2.78;1.52;;;18.80;99.90;;;;;;4163475;28;20645;-74
2021/12/29 10:32:37;;;;;;;2.72;1.20;;;18.80;99.90;;;;;;4172389;28;20236;-75
2021/12/29 10:34:39;;;;;;;3.28;1.48;;;18.80;99.90;;;;;;4170022;28;20216;-75
2021/12/29 10:36:46;;;;;;;2.80;1.42;;;18.80;99.90;;;;;;4161206;28;20282;-75
2021/12/29 10:38:58;;;;;;;3.17;1.48;;;18.80;99.90;;;;;;4169361;28;20346;-75
2021/12/29 10:41:03;;;;;;;3.28;1.15;;;18.80;99.90;;;;;;4169728;28;20200;-75
2021/12/29 10:43:05;;;;;;;4.20;1.80;;;18.80;99.90;;;;;;4169619;28;20330;-75
2021/12/29 10:45:08;;;;;;;3.67;1.40;;;18.80;99.90;;;;;;4169023;28;20634;-75
2021/12/29 10:47:16;;;;;;;2.97;1.30;;;18.80;99.90;;;;;;4168480;28;20223;-75
2021/12/29 10:49:18;;;;;;;3.00;1.50;;;18.80;99.90;;;;;;4164361;28;20232;-75